sensor_id;sensor_type;location;lat;lon;timestamp;temperature;humidity
13409;DHT22;6775;49.574;11.170;2023-04-24T00:00:42;11.00;99.90
13409;DHT22;6775;49.574;11.170;2023-04-24T00:03:11;11.00;99.90
13409;DHT22;6775;49.574;11.170;2023-04-24T00:05:39;11.00;99.90
13409;DHT22;6775;49.574;11.170;2023-04-24T00:08:07;11.00;99.90
13409;DHT22;6775;49.574;11.170;2023-04-24T00:10:36;11.00;99.90
13409;DHT22;6775;49.574;11.170;2023-04-24T00:13:04;11.00;99.90
13409;DHT22;6775;49.574;11.170;2023-04-24T00:15:32;11.00;99.90
13409;DHT22;6775;49.574;11.170;2023-04-24T00:18:01;11.00;99.90
13409;DHT22;6775;49.574;11.170;2023-04-24T00:20:29;11.00;99.90
13409;DHT22;6775;49.574;11.170;2023-04-24T00:22:58;11.00;99.90
13409;DHT22;6775;49.574;11.170;2023-04-24T00:25:26;10.90;99.90
13409;DHT22;6775;49.574;11.170;2023-04-24T00:27:54;10.90;99.90
13409;DHT22;6775;49.574;11.170;2023-04-24T00:30:22;10.90;99.90
13409;DHT22;6775;49.574;11.170;2023-04-24T00:32:50;10.90;99.90
13409;DHT22;6775;49.574;11.170;2023-04-24T00:35:19;10.90;99.90
13409;DHT22;6775;49.574;11.170;2023-04-24T00:37:47;10.90;99.90
13409;DHT22;6775;49.574;11.170;2023-04-24T00:40:15;10.80;99.90
13409;DHT22;6775;49.574;11.170;2023-04-24T00:42:43;10.80;99.90
13409;DHT22;6775;49.574;11.170;2023-04-24T00:45:12;10.80;99.90
13409;DHT22;6775;49.574;11.170;2023-04-24T00:47:41;10.80;99.90
13409;DHT22;6775;49.574;11.170;2023-04-24T00:50:09;10.80;99.90
13409;DHT22;6775;49.574;11.170;2023-04-24T00:52:39;10.80;99.90
13409;DHT22;6775;49.574;11.170;2023-04-24T00:55:08;10.80;99.90
13409;DHT22;6775;49.574;11.170;2023-04-24T00:57:37;10.80;99.90
13409;DHT22;6775;49.574;11.170;2023-04-24T01:00:06;10.70;99.90
13409;DHT22;6775;49.574;11.170;2023-04-24T01:02:39;10.70;99.90
13409;DHT22;6775;49.574;11.170;2023-04-24T01:05:11;10.70;99.90
13409;DHT22;6775;49.574;11.170;2023-04-24T01:07:41;10.70;99.90
13409;DHT22;6775;49.574;11.170;2023-04-24T01:10:13;10.70;99.90
13409;DHT22;6775;49.574;11.170;2023-04-24T01:12:41;10.70;99.90
13409;DHT22;6775;49.574;11.170;2023-04-24T01:15:10;10.70;99.90
13409;DHT22;6775;49.574;11.170;2023-04-24T01:17:37;10.70;99.90
13409;DHT22;6775;49.574;11.170;2023-04-24T01:20:07;10.70;99.90
13409;DHT22;6775;49.574;11.170;2023-04-24T01:22:36;10.70;99.90
13409;DHT22;6775;49.574;11.170;2023-04-24T01:25:05;10.70;99.90
13409;DHT22;6775;49.574;11.170;2023-04-24T01:27:33;10.70;99.90
13409;DHT22;6775;49.574;11.170;2023-04-24T01:30:01;10.70;99.90
13409;DHT22;6775;49.574;11.170;2023-04-24T01:32:29;10.70;99.90
13409;DHT22;6775;49.574;11.170;2023-04-24T01:34:57;10.60;99.90
13409;DHT22;6775;49.574;11.170;2023-04-24T01:37:25;10.60;99.90
13409;DHT22;6775;49.574;11.170;2023-04-24T01:39:54;10.60;99.90
13409;DHT22;6775;49.574;11.170;2023-04-24T01:42:22;10.60;99.90
13409;DHT22;6775;49.574;11.170;2023-04-24T01:44:50;10.60;99.90
13409;DHT22;6775;49.574;11.170;2023-04-24T01:47:18;10.60;99.90
13409;DHT22;6775;49.574;11.170;2023-04-24T01:49:48;10.60;99.90
13409;DHT22;6775;49.574;11.170;2023-04-24T01:52:16;10.60;99.90
13409;DHT22;6775;49.574;11.170;2023-04-24T01:54:45;10.70;99.90
13409;DHT22;6775;49.574;11.170;2023-04-24T01:57:14;10.70;99.90
13409;DHT22;6775;49.574;11.170;2023-04-24T01:59:43;10.70;99.90
13409;DHT22;6775;49.574;11.170;2023-04-24T02:02:11;10.70;99.90
13409;DHT22;6775;49.574;11.170;2023-04-24T02:04:39;10.70;99.90
13409;DHT22;6775;49.574;11.170;2023-04-24T02:07:07;10.80;99.90
13409;DHT22;6775;49.574;11.170;2023-04-24T02:09:35;10.80;99.90
13409;DHT22;6775;49.574;11.170;2023-04-24T02:12:03;10.80;99.90
13409;DHT22;6775;49.574;11.170;2023-04-24T02:14:32;10.80;99.90
13409;DHT22;6775;49.574;11.170;2023-04-24T02:17:00;10.80;99.90
13409;DHT22;6775;49.574;11.170;2023-04-24T02:19:28;10.80;99.90
13409;DHT22;6775;49.574;11.170;2023-04-24T02:21:56;10.80;99.90
13409;DHT22;6775;49.574;11.170;2023-04-24T02:24:23;10.80;99.90
13409;DHT22;6775;49.574;11.170;2023-04-24T02:26:51;10.80;99.90
13409;DHT22;6775;49.574;11.170;2023-04-24T02:29:19;10.90;99.90
13409;DHT22;6775;49.574;11.170;2023-04-24T02:31:48;10.80;99.90
13409;DHT22;6775;49.574;11.170;2023-04-24T02:34:16;10.80;99.90
13409;DHT22;6775;49.574;11.170;2023-04-24T02:36:44;10.80;99.90
13409;DHT22;6775;49.574;11.170;2023-04-24T02:39:12;10.80;99.90
13409;DHT22;6775;49.574;11.170;2023-04-24T02:41:40;10.70;99.90
13409;DHT22;6775;49.574;11.170;2023-04-24T02:44:08;10.80;99.90
13409;DHT22;6775;49.574;11.170;2023-04-24T02:46:36;10.70;99.90
13409;DHT22;6775;49.574;11.170;2023-04-24T02:49:05;10.70;99.90
13409;DHT22;6775;49.574;11.170;2023-04-24T02:51:33;10.60;99.90
13409;DHT22;6775;49.574;11.170;2023-04-24T02:54:01;10.60;99.90
13409;DHT22;6775;49.574;11.170;2023-04-24T02:56:29;10.60;99.90
13409;DHT22;6775;49.574;11.170;2023-04-24T02:58:56;10.60;99.90
13409;DHT22;6775;49.574;11.170;2023-04-24T03:01:24;10.60;99.90
13409;DHT22;6775;49.574;11.170;2023-04-24T03:03:52;10.50;99.90
13409;DHT22;6775;49.574;11.170;2023-04-24T03:06:22;10.50;99.90
13409;DHT22;6775;49.574;11.170;2023-04-24T03:08:49;10.50;99.90
13409;DHT22;6775;49.574;11.170;2023-04-24T03:11:17;10.50;99.90
13409;DHT22;6775;49.574;11.170;2023-04-24T03:13:45;10.50;99.90
13409;DHT22;6775;49.574;11.170;2023-04-24T03:16:13;10.50;99.90
13409;DHT22;6775;49.574;11.170;2023-04-24T03:18:40;10.50;99.90
13409;DHT22;6775;49.574;11.170;2023-04-24T03:21:08;10.50;99.90
13409;DHT22;6775;49.574;11.170;2023-04-24T03:23:37;10.50;99.90
13409;DHT22;6775;49.574;11.170;2023-04-24T03:26:06;10.50;99.90
13409;DHT22;6775;49.574;11.170;2023-04-24T03:28:33;10.50;99.90
13409;DHT22;6775;49.574;11.170;2023-04-24T03:31:02;10.60;99.90
13409;DHT22;6775;49.574;11.170;2023-04-24T03:33:30;10.60;99.90
13409;DHT22;6775;49.574;11.170;2023-04-24T03:35:58;10.60;99.90
13409;DHT22;6775;49.574;11.170;2023-04-24T03:38:26;10.50;99.90
13409;DHT22;6775;49.574;11.170;2023-04-24T03:40:55;10.50;99.90
13409;DHT22;6775;49.574;11.170;2023-04-24T03:43:23;10.50;99.90
13409;DHT22;6775;49.574;11.170;2023-04-24T03:45:50;10.50;99.90
13409;DHT22;6775;49.574;11.170;2023-04-24T03:48:18;10.50;99.90
13409;DHT22;6775;49.574;11.170;2023-04-24T03:50:46;10.50;99.90
13409;DHT22;6775;49.574;11.170;2023-04-24T03:53:14;10.40;99.90
13409;DHT22;6775;49.574;11.170;2023-04-24T03:55:42;10.40;99.90
13409;DHT22;6775;49.574;11.170;2023-04-24T03:58:11;10.40;99.90
13409;DHT22;6775;49.574;11.170;2023-04-24T04:00:40;10.40;99.90
13409;DHT22;6775;49.574;11.170;2023-04-24T04:03:08;10.40;99.90
13409;DHT22;6775;49.574;11.170;2023-04-24T04:05:36;10.30;99.90
13409;DHT22;6775;49.574;11.170;2023-04-24T04:08:04;10.30;99.90
13409;DHT22;6775;49.574;11.170;2023-04-24T04:10:31;10.30;99.90
13409;DHT22;6775;49.574;11.170;2023-04-24T04:12:59;10.30;99.90
13409;DHT22;6775;49.574;11.170;2023-04-24T04:15:28;10.30;99.90
13409;DHT22;6775;49.574;11.170;2023-04-24T04:17:56;10.30;99.90
13409;DHT22;6775;49.574;11.170;2023-04-24T04:20:24;10.30;99.90
13409;DHT22;6775;49.574;11.170;2023-04-24T04:22:52;10.30;99.90
13409;DHT22;6775;49.574;11.170;2023-04-24T04:25:20;10.30;99.90
13409;DHT22;6775;49.574;11.170;2023-04-24T04:27:47;10.30;99.90
13409;DHT22;6775;49.574;11.170;2023-04-24T04:30:15;10.20;99.90
13409;DHT22;6775;49.574;11.170;2023-04-24T04:32:44;10.20;99.90
13409;DHT22;6775;49.574;11.170;2023-04-24T04:35:12;10.20;99.90
13409;DHT22;6775;49.574;11.170;2023-04-24T04:37:40;10.20;99.90
13409;DHT22;6775;49.574;11.170;2023-04-24T04:40:09;10.20;99.90
13409;DHT22;6775;49.574;11.170;2023-04-24T04:42:38;10.20;99.90
13409;DHT22;6775;49.574;11.170;2023-04-24T04:45:08;10.20;99.90
13409;DHT22;6775;49.574;11.170;2023-04-24T04:47:38;10.20;99.90
13409;DHT22;6775;49.574;11.170;2023-04-24T04:50:08;10.20;99.90
13409;DHT22;6775;49.574;11.170;2023-04-24T04:52:37;10.20;99.90
13409;DHT22;6775;49.574;11.170;2023-04-24T04:55:05;10.20;99.90
13409;DHT22;6775;49.574;11.170;2023-04-24T04:57:34;10.20;99.90
13409;DHT22;6775;49.574;11.170;2023-04-24T05:00:02;10.20;99.90
13409;DHT22;6775;49.574;11.170;2023-04-24T05:02:31;10.20;99.90
13409;DHT22;6775;49.574;11.170;2023-04-24T05:04:59;10.30;99.90
13409;DHT22;6775;49.574;11.170;2023-04-24T05:07:28;10.30;99.90
13409;DHT22;6775;49.574;11.170;2023-04-24T05:09:56;10.30;99.90
13409;DHT22;6775;49.574;11.170;2023-04-24T05:12:24;10.30;99.90
13409;DHT22;6775;49.574;11.170;2023-04-24T05:14:52;10.40;99.90
13409;DHT22;6775;49.574;11.170;2023-04-24T05:17:20;10.40;99.90
13409;DHT22;6775;49.574;11.170;2023-04-24T05:19:47;10.40;99.90
13409;DHT22;6775;49.574;11.170;2023-04-24T05:22:15;10.50;99.90
13409;DHT22;6775;49.574;11.170;2023-04-24T05:24:46;10.50;99.90
13409;DHT22;6775;49.574;11.170;2023-04-24T05:27:14;10.50;99.90
13409;DHT22;6775;49.574;11.170;2023-04-24T05:29:42;10.50;99.90
13409;DHT22;6775;49.574;11.170;2023-04-24T05:32:10;10.50;99.90
13409;DHT22;6775;49.574;11.170;2023-04-24T05:34:38;10.50;99.90
13409;DHT22;6775;49.574;11.170;2023-04-24T05:37:06;10.50;99.90
13409;DHT22;6775;49.574;11.170;2023-04-24T05:39:36;10.50;99.90
13409;DHT22;6775;49.574;11.170;2023-04-24T05:42:05;10.50;99.90
13409;DHT22;6775;49.574;11.170;2023-04-24T05:44:33;10.60;99.90
13409;DHT22;6775;49.574;11.170;2023-04-24T05:47:01;10.60;99.90
13409;DHT22;6775;49.574;11.170;2023-04-24T05:49:29;10.70;99.90
13409;DHT22;6775;49.574;11.170;2023-04-24T05:51:57;10.70;99.90
13409;DHT22;6775;49.574;11.170;2023-04-24T05:54:25;10.70;99.90
13409;DHT22;6775;49.574;11.170;2023-04-24T05:56:52;10.80;99.90
13409;DHT22;6775;49.574;11.170;2023-04-24T05:59:23;10.90;99.90
13409;DHT22;6775;49.574;11.170;2023-04-24T06:01:51;10.90;99.90
13409;DHT22;6775;49.574;11.170;2023-04-24T06:04:18;11.00;99.90
13409;DHT22;6775;49.574;11.170;2023-04-24T06:06:47;11.00;99.90
13409;DHT22;6775;49.574;11.170;2023-04-24T06:09:17;11.00;99.90
13409;DHT22;6775;49.574;11.170;2023-04-24T06:11:45;11.10;99.90
13409;DHT22;6775;49.574;11.170;2023-04-24T06:14:13;11.10;99.90
13409;DHT22;6775;49.574;11.170;2023-04-24T06:16:42;11.10;99.90
13409;DHT22;6775;49.574;11.170;2023-04-24T06:19:10;11.10;99.90
13409;DHT22;6775;49.574;11.170;2023-04-24T06:21:38;11.10;99.90
13409;DHT22;6775;49.574;11.170;2023-04-24T06:24:06;11.10;99.90
13409;DHT22;6775;49.574;11.170;2023-04-24T06:26:34;11.10;99.90
13409;DHT22;6775;49.574;11.170;2023-04-24T06:29:01;11.10;99.90
13409;DHT22;6775;49.574;11.170;2023-04-24T06:31:29;11.10;99.90
13409;DHT22;6775;49.574;11.170;2023-04-24T06:34:03;11.10;99.90
13409;DHT22;6775;49.574;11.170;2023-04-24T06:36:30;11.10;99.90
13409;DHT22;6775;49.574;11.170;2023-04-24T06:38:59;11.10;99.90
13409;DHT22;6775;49.574;11.170;2023-04-24T06:41:26;11.10;99.90
13409;DHT22;6775;49.574;11.170;2023-04-24T06:43:54;11.10;99.90
13409;DHT22;6775;49.574;11.170;2023-04-24T06:46:22;11.20;99.90
13409;DHT22;6775;49.574;11.170;2023-04-24T06:48:53;11.20;99.90
13409;DHT22;6775;49.574;11.170;2023-04-24T06:51:24;11.20;99.90
13409;DHT22;6775;49.574;11.170;2023-04-24T06:53:53;11.20;99.90
13409;DHT22;6775;49.574;11.170;2023-04-24T06:56:22;11.20;99.90
13409;DHT22;6775;49.574;11.170;2023-04-24T06:58:50;11.20;99.90
13409;DHT22;6775;49.574;11.170;2023-04-24T07:01:18;11.20;99.90
13409;DHT22;6775;49.574;11.170;2023-04-24T07:03:46;11.20;99.90
13409;DHT22;6775;49.574;11.170;2023-04-24T07:06:14;11.30;99.90
13409;DHT22;6775;49.574;11.170;2023-04-24T07:08:44;11.30;99.90
13409;DHT22;6775;49.574;11.170;2023-04-24T07:11:13;11.40;99.90
13409;DHT22;6775;49.574;11.170;2023-04-24T07:13:40;11.50;99.90
13409;DHT22;6775;49.574;11.170;2023-04-24T07:16:09;11.70;99.90
13409;DHT22;6775;49.574;11.170;2023-04-24T07:18:37;11.80;99.90
13409;DHT22;6775;49.574;11.170;2023-04-24T07:21:06;11.90;99.90
13409;DHT22;6775;49.574;11.170;2023-04-24T07:23:34;11.90;99.90
13409;DHT22;6775;49.574;11.170;2023-04-24T07:26:03;11.90;99.90
13409;DHT22;6775;49.574;11.170;2023-04-24T07:28:31;11.90;99.90
13409;DHT22;6775;49.574;11.170;2023-04-24T07:30:59;12.00;99.90
13409;DHT22;6775;49.574;11.170;2023-04-24T07:33:27;12.10;99.90
13409;DHT22;6775;49.574;11.170;2023-04-24T07:35:55;12.20;99.90
13409;DHT22;6775;49.574;11.170;2023-04-24T07:38:23;12.40;99.90
13409;DHT22;6775;49.574;11.170;2023-04-24T07:40:52;12.50;99.90
13409;DHT22;6775;49.574;11.170;2023-04-24T07:43:21;12.50;99.90
13409;DHT22;6775;49.574;11.170;2023-04-24T07:45:50;12.60;99.90
13409;DHT22;6775;49.574;11.170;2023-04-24T07:48:18;12.70;99.90
13409;DHT22;6775;49.574;11.170;2023-04-24T07:50:47;12.60;99.90
13409;DHT22;6775;49.574;11.170;2023-04-24T07:53:15;12.50;99.90
13409;DHT22;6775;49.574;11.170;2023-04-24T07:55:43;12.50;99.90
13409;DHT22;6775;49.574;11.170;2023-04-24T07:58:11;12.50;99.90
13409;DHT22;6775;49.574;11.170;2023-04-24T08:00:40;12.50;99.90
13409;DHT22;6775;49.574;11.170;2023-04-24T08:03:08;12.50;99.90
13409;DHT22;6775;49.574;11.170;2023-04-24T08:05:36;12.50;99.90
13409;DHT22;6775;49.574;11.170;2023-04-24T08:08:06;12.50;99.90
13409;DHT22;6775;49.574;11.170;2023-04-24T08:10:34;12.60;99.90
13409;DHT22;6775;49.574;11.170;2023-04-24T08:13:02;12.70;99.90
13409;DHT22;6775;49.574;11.170;2023-04-24T08:15:30;12.70;99.90
13409;DHT22;6775;49.574;11.170;2023-04-24T08:17:59;12.90;99.90
13409;DHT22;6775;49.574;11.170;2023-04-24T08:20:27;13.00;99.90
13409;DHT22;6775;49.574;11.170;2023-04-24T08:22:55;13.00;99.90
13409;DHT22;6775;49.574;11.170;2023-04-24T08:25:23;13.10;99.90
13409;DHT22;6775;49.574;11.170;2023-04-24T08:27:51;13.30;99.90
13409;DHT22;6775;49.574;11.170;2023-04-24T08:30:19;13.60;99.90
13409;DHT22;6775;49.574;11.170;2023-04-24T08:32:47;13.60;99.90
13409;DHT22;6775;49.574;11.170;2023-04-24T08:35:17;13.70;99.90
13409;DHT22;6775;49.574;11.170;2023-04-24T08:37:45;13.60;99.90
13409;DHT22;6775;49.574;11.170;2023-04-24T08:40:14;13.70;99.90
13409;DHT22;6775;49.574;11.170;2023-04-24T08:42:42;13.70;99.90
13409;DHT22;6775;49.574;11.170;2023-04-24T08:45:11;13.60;99.90
13409;DHT22;6775;49.574;11.170;2023-04-24T08:47:40;13.60;99.90
13409;DHT22;6775;49.574;11.170;2023-04-24T08:50:10;13.60;99.90
13409;DHT22;6775;49.574;11.170;2023-04-24T08:52:41;13.70;99.90
13409;DHT22;6775;49.574;11.170;2023-04-24T08:55:09;13.60;99.90
13409;DHT22;6775;49.574;11.170;2023-04-24T08:57:37;13.50;99.90
13409;DHT22;6775;49.574;11.170;2023-04-24T09:00:07;13.30;99.90
13409;DHT22;6775;49.574;11.170;2023-04-24T09:02:41;13.20;99.90
13409;DHT22;6775;49.574;11.170;2023-04-24T09:05:10;13.50;99.90
13409;DHT22;6775;49.574;11.170;2023-04-24T09:07:40;14.00;99.90
13409;DHT22;6775;49.574;11.170;2023-04-24T09:10:09;14.20;99.90
13409;DHT22;6775;49.574;11.170;2023-04-24T09:12:37;14.40;99.90
13409;DHT22;6775;49.574;11.170;2023-04-24T09:15:07;14.50;99.90
13409;DHT22;6775;49.574;11.170;2023-04-24T09:17:36;14.60;99.90
13409;DHT22;6775;49.574;11.170;2023-04-24T09:20:05;14.60;99.90
13409;DHT22;6775;49.574;11.170;2023-04-24T09:22:33;14.50;99.90
13409;DHT22;6775;49.574;11.170;2023-04-24T09:25:06;14.30;99.90
13409;DHT22;6775;49.574;11.170;2023-04-24T09:27:35;14.10;99.90
13409;DHT22;6775;49.574;11.170;2023-04-24T09:30:04;13.90;99.90
13409;DHT22;6775;49.574;11.170;2023-04-24T09:32:32;13.90;99.90
13409;DHT22;6775;49.574;11.170;2023-04-24T09:35:07;14.20;99.90
13409;DHT22;6775;49.574;11.170;2023-04-24T09:37:37;14.50;99.90
13409;DHT22;6775;49.574;11.170;2023-04-24T09:40:25;14.70;99.90
13409;DHT22;6775;49.574;11.170;2023-04-24T09:42:54;14.60;99.90
13409;DHT22;6775;49.574;11.170;2023-04-24T09:45:27;14.40;99.90
13409;DHT22;6775;49.574;11.170;2023-04-24T09:47:55;14.10;99.90
13409;DHT22;6775;49.574;11.170;2023-04-24T09:50:23;14.10;99.90
13409;DHT22;6775;49.574;11.170;2023-04-24T09:52:57;14.10;99.90
13409;DHT22;6775;49.574;11.170;2023-04-24T09:55:27;14.30;99.90
13409;DHT22;6775;49.574;11.170;2023-04-24T09:57:56;14.70;99.90
13409;DHT22;6775;49.574;11.170;2023-04-24T10:00:26;15.00;99.90
13409;DHT22;6775;49.574;11.170;2023-04-24T10:02:58;15.30;99.90
13409;DHT22;6775;49.574;11.170;2023-04-24T10:05:30;15.30;99.90
13409;DHT22;6775;49.574;11.170;2023-04-24T10:08:01;15.10;99.90
13409;DHT22;6775;49.574;11.170;2023-04-24T10:10:33;15.10;99.90
13409;DHT22;6775;49.574;11.170;2023-04-24T10:13:01;14.90;99.90
13409;DHT22;6775;49.574;11.170;2023-04-24T10:15:30;14.70;99.90
13409;DHT22;6775;49.574;11.170;2023-04-24T10:17:58;14.50;99.90
13409;DHT22;6775;49.574;11.170;2023-04-24T10:20:28;14.30;99.90
13409;DHT22;6775;49.574;11.170;2023-04-24T10:22:58;14.10;99.90
13409;DHT22;6775;49.574;11.170;2023-04-24T10:25:27;13.80;99.90
13409;DHT22;6775;49.574;11.170;2023-04-24T10:27:58;13.70;99.90
13409;DHT22;6775;49.574;11.170;2023-04-24T10:30:27;13.90;99.90
13409;DHT22;6775;49.574;11.170;2023-04-24T10:32:56;14.20;99.90
13409;DHT22;6775;49.574;11.170;2023-04-24T10:35:24;14.70;99.90
13409;DHT22;6775;49.574;11.170;2023-04-24T10:37:57;15.20;99.90
13409;DHT22;6775;49.574;11.170;2023-04-24T10:40:31;15.20;99.90
13409;DHT22;6775;49.574;11.170;2023-04-24T10:43:02;15.00;99.90
13409;DHT22;6775;49.574;11.170;2023-04-24T10:45:32;14.70;99.90
13409;DHT22;6775;49.574;11.170;2023-04-24T10:48:02;14.50;99.90
13409;DHT22;6775;49.574;11.170;2023-04-24T10:50:42;14.30;99.90
13409;DHT22;6775;49.574;11.170;2023-04-24T10:53:16;14.20;99.90
13409;DHT22;6775;49.574;11.170;2023-04-24T10:55:47;14.20;99.90
13409;DHT22;6775;49.574;11.170;2023-04-24T10:58:16;14.30;99.90
13409;DHT22;6775;49.574;11.170;2023-04-24T11:00:55;14.30;99.90
13409;DHT22;6775;49.574;11.170;2023-04-24T11:03:25;14.20;99.90
13409;DHT22;6775;49.574;11.170;2023-04-24T11:05:57;14.10;99.90
13409;DHT22;6775;49.574;11.170;2023-04-24T11:08:28;13.90;99.90
13409;DHT22;6775;49.574;11.170;2023-04-24T11:10:58;13.70;99.90
13409;DHT22;6775;49.574;11.170;2023-04-24T11:16:20;13.40;99.90
13409;DHT22;6775;49.574;11.170;2023-04-24T11:18:51;13.40;99.90
13409;DHT22;6775;49.574;11.170;2023-04-24T11:21:22;13.40;99.90
13409;DHT22;6775;49.574;11.170;2023-04-24T11:23:50;13.40;99.90
13409;DHT22;6775;49.574;11.170;2023-04-24T11:26:19;13.40;99.90
13409;DHT22;6775;49.574;11.170;2023-04-24T11:28:50;13.40;99.90
13409;DHT22;6775;49.574;11.170;2023-04-24T11:31:35;13.50;99.90
13409;DHT22;6775;49.574;11.170;2023-04-24T11:34:08;13.70;99.90
13409;DHT22;6775;49.574;11.170;2023-04-24T11:36:36;13.80;99.90
13409;DHT22;6775;49.574;11.170;2023-04-24T11:39:04;14.00;99.90
13409;DHT22;6775;49.574;11.170;2023-04-24T11:41:33;14.10;99.90
13409;DHT22;6775;49.574;11.170;2023-04-24T11:44:03;14.20;99.90
13409;DHT22;6775;49.574;11.170;2023-04-24T11:46:33;14.30;99.90
13409;DHT22;6775;49.574;11.170;2023-04-24T11:49:01;14.10;99.90
13409;DHT22;6775;49.574;11.170;2023-04-24T11:51:29;14.00;99.90
13409;DHT22;6775;49.574;11.170;2023-04-24T11:54:13;13.90;99.90
13409;DHT22;6775;49.574;11.170;2023-04-24T11:56:44;13.60;99.90
13409;DHT22;6775;49.574;11.170;2023-04-24T11:59:15;13.40;99.90
13409;DHT22;6775;49.574;11.170;2023-04-24T12:01:43;13.10;99.90
13409;DHT22;6775;49.574;11.170;2023-04-24T12:04:12;12.90;99.90
13409;DHT22;6775;49.574;11.170;2023-04-24T12:06:40;12.80;99.90
13409;DHT22;6775;49.574;11.170;2023-04-24T12:09:26;12.70;99.90
13409;DHT22;6775;49.574;11.170;2023-04-24T12:11:54;12.60;99.90
13409;DHT22;6775;49.574;11.170;2023-04-24T12:14:24;12.70;99.90
13409;DHT22;6775;49.574;11.170;2023-04-24T12:16:52;12.80;99.90
13409;DHT22;6775;49.574;11.170;2023-04-24T12:19:21;12.90;99.90
13409;DHT22;6775;49.574;11.170;2023-04-24T12:22:00;13.00;99.90
13409;DHT22;6775;49.574;11.170;2023-04-24T12:24:28;13.00;99.90
13409;DHT22;6775;49.574;11.170;2023-04-24T12:26:56;13.10;99.90
13409;DHT22;6775;49.574;11.170;2023-04-24T12:29:26;13.10;99.90
13409;DHT22;6775;49.574;11.170;2023-04-24T12:31:54;13.20;99.90
13409;DHT22;6775;49.574;11.170;2023-04-24T12:34:23;13.30;99.90
13409;DHT22;6775;49.574;11.170;2023-04-24T12:36:51;13.50;99.90
13409;DHT22;6775;49.574;11.170;2023-04-24T12:39:20;13.90;99.90
13409;DHT22;6775;49.574;11.170;2023-04-24T12:41:54;14.10;99.90
13409;DHT22;6775;49.574;11.170;2023-04-24T12:44:30;14.20;99.90
13409;DHT22;6775;49.574;11.170;2023-04-24T12:47:01;14.00;99.90
13409;DHT22;6775;49.574;11.170;2023-04-24T12:49:30;13.90;99.90
13409;DHT22;6775;49.574;11.170;2023-04-24T12:51:58;13.70;99.90
13409;DHT22;6775;49.574;11.170;2023-04-24T12:54:26;13.70;99.90
13409;DHT22;6775;49.574;11.170;2023-04-24T12:56:59;13.70;99.90
13409;DHT22;6775;49.574;11.170;2023-04-24T12:59:27;13.90;99.90
13409;DHT22;6775;49.574;11.170;2023-04-24T13:01:56;13.90;99.90
13409;DHT22;6775;49.574;11.170;2023-04-24T13:04:24;14.00;99.90
13409;DHT22;6775;49.574;11.170;2023-04-24T13:06:52;14.00;99.90
13409;DHT22;6775;49.574;11.170;2023-04-24T13:09:20;13.90;99.90
13409;DHT22;6775;49.574;11.170;2023-04-24T13:11:48;13.80;99.90
13409;DHT22;6775;49.574;11.170;2023-04-24T13:14:16;13.70;99.90
13409;DHT22;6775;49.574;11.170;2023-04-24T13:16:44;13.70;99.90
13409;DHT22;6775;49.574;11.170;2023-04-24T13:19:13;13.70;99.90
13409;DHT22;6775;49.574;11.170;2023-04-24T13:21:41;13.70;99.90
13409;DHT22;6775;49.574;11.170;2023-04-24T13:24:10;13.90;99.90
13409;DHT22;6775;49.574;11.170;2023-04-24T13:26:37;14.00;99.90
13409;DHT22;6775;49.574;11.170;2023-04-24T13:29:05;14.10;99.90
13409;DHT22;6775;49.574;11.170;2023-04-24T13:31:33;14.10;99.90
13409;DHT22;6775;49.574;11.170;2023-04-24T13:34:02;14.10;99.90
13409;DHT22;6775;49.574;11.170;2023-04-24T13:36:31;14.10;99.90
13409;DHT22;6775;49.574;11.170;2023-04-24T13:38:59;14.00;99.90
13409;DHT22;6775;49.574;11.170;2023-04-24T13:41:27;13.90;99.90
13409;DHT22;6775;49.574;11.170;2023-04-24T13:43:54;13.80;99.90
13409;DHT22;6775;49.574;11.170;2023-04-24T13:46:22;13.70;99.90
13409;DHT22;6775;49.574;11.170;2023-04-24T13:48:50;13.70;99.90
13409;DHT22;6775;49.574;11.170;2023-04-24T13:51:19;13.70;99.90
13409;DHT22;6775;49.574;11.170;2023-04-24T13:53:48;13.70;99.90
13409;DHT22;6775;49.574;11.170;2023-04-24T13:56:15;13.50;99.90
13409;DHT22;6775;49.574;11.170;2023-04-24T13:58:43;13.40;99.90
13409;DHT22;6775;49.574;11.170;2023-04-24T14:01:11;13.50;99.90
13409;DHT22;6775;49.574;11.170;2023-04-24T14:03:39;13.70;99.90
13409;DHT22;6775;49.574;11.170;2023-04-24T14:06:08;14.10;99.90
13409;DHT22;6775;49.574;11.170;2023-04-24T14:08:35;14.30;99.90
13409;DHT22;6775;49.574;11.170;2023-04-24T14:11:05;14.30;99.90
13409;DHT22;6775;49.574;11.170;2023-04-24T14:13:35;14.40;99.90
13409;DHT22;6775;49.574;11.170;2023-04-24T14:16:04;14.40;99.90
13409;DHT22;6775;49.574;11.170;2023-04-24T14:18:32;14.40;98.00
13409;DHT22;6775;49.574;11.170;2023-04-24T14:21:00;14.30;98.60
13409;DHT22;6775;49.574;11.170;2023-04-24T14:23:28;14.00;99.40
13409;DHT22;6775;49.574;11.170;2023-04-24T14:25:57;14.10;99.90
13409;DHT22;6775;49.574;11.170;2023-04-24T14:28:26;14.10;99.90
13409;DHT22;6775;49.574;11.170;2023-04-24T14:30:54;14.10;99.90
13409;DHT22;6775;49.574;11.170;2023-04-24T14:33:22;14.20;99.90
13409;DHT22;6775;49.574;11.170;2023-04-24T14:35:50;14.20;99.90
13409;DHT22;6775;49.574;11.170;2023-04-24T14:38:17;14.40;99.90
13409;DHT22;6775;49.574;11.170;2023-04-24T14:40:45;14.20;99.90
13409;DHT22;6775;49.574;11.170;2023-04-24T14:43:16;14.20;99.90
13409;DHT22;6775;49.574;11.170;2023-04-24T14:45:45;14.10;99.90
13409;DHT22;6775;49.574;11.170;2023-04-24T14:48:13;14.00;99.90
13409;DHT22;6775;49.574;11.170;2023-04-24T14:50:42;13.90;99.90
13409;DHT22;6775;49.574;11.170;2023-04-24T14:53:11;13.70;99.90
13409;DHT22;6775;49.574;11.170;2023-04-24T14:55:39;13.50;99.90
13409;DHT22;6775;49.574;11.170;2023-04-24T14:58:07;13.30;99.90
13409;DHT22;6775;49.574;11.170;2023-04-24T15:00:35;13.20;99.90
13409;DHT22;6775;49.574;11.170;2023-04-24T15:03:04;13.10;99.90
13409;DHT22;6775;49.574;11.170;2023-04-24T15:05:33;12.90;99.90
13409;DHT22;6775;49.574;11.170;2023-04-24T15:08:01;12.80;99.90
13409;DHT22;6775;49.574;11.170;2023-04-24T15:10:29;12.90;99.90
13409;DHT22;6775;49.574;11.170;2023-04-24T15:12:57;12.90;99.90
13409;DHT22;6775;49.574;11.170;2023-04-24T15:15:25;12.90;99.90
13409;DHT22;6775;49.574;11.170;2023-04-24T15:17:53;13.10;99.90
13409;DHT22;6775;49.574;11.170;2023-04-24T15:20:22;13.20;99.90
13409;DHT22;6775;49.574;11.170;2023-04-24T15:22:50;13.40;99.90
13409;DHT22;6775;49.574;11.170;2023-04-24T15:25:18;13.60;99.90
13409;DHT22;6775;49.574;11.170;2023-04-24T15:27:46;13.50;99.90
13409;DHT22;6775;49.574;11.170;2023-04-24T15:30:14;13.60;99.90
13409;DHT22;6775;49.574;11.170;2023-04-24T15:32:42;13.70;99.90
13409;DHT22;6775;49.574;11.170;2023-04-24T15:35:10;13.80;99.90
13409;DHT22;6775;49.574;11.170;2023-04-24T15:37:39;13.80;99.90
13409;DHT22;6775;49.574;11.170;2023-04-24T15:40:08;13.70;99.90
13409;DHT22;6775;49.574;11.170;2023-04-24T15:42:37;13.70;99.90